createdAt,value
2023-01-27T00:00:43.508Z,4.88
2023-01-27T00:03:12.262Z,4.87
2023-01-27T00:05:38.883Z,5.22
2023-01-27T00:08:05.545Z,5.13
2023-01-27T00:10:32.111Z,5.40
2023-01-27T00:12:59.986Z,5.20
2023-01-27T00:15:26.812Z,4.90
2023-01-27T00:17:53.411Z,5.03
2023-01-27T00:20:20.191Z,4.78
2023-01-27T00:22:46.717Z,4.93
2023-01-27T00:25:13.466Z,4.78
2023-01-27T00:27:40.158Z,5.13
2023-01-27T00:30:09.971Z,4.65
2023-01-27T00:32:36.808Z,5.75
2023-01-27T00:35:03.953Z,4.65
2023-01-27T00:37:30.465Z,4.80
2023-01-27T00:39:57.033Z,4.63
2023-01-27T00:42:23.686Z,5.25
2023-01-27T00:44:50.240Z,5.32
2023-01-27T00:47:18.168Z,5.10
2023-01-27T00:49:44.721Z,5.30
2023-01-27T00:52:11.324Z,5.07
2023-01-27T00:54:37.910Z,5.97
2023-01-27T00:57:04.447Z,5.40
2023-01-27T00:59:30.984Z,4.80
2023-01-27T01:01:57.515Z,6.72
2023-01-27T01:04:25.445Z,5.60
2023-01-27T01:06:52.026Z,5.15
2023-01-27T01:09:18.597Z,5.38
2023-01-27T01:11:45.142Z,5.43
2023-01-27T01:14:11.701Z,4.97
2023-01-27T01:16:38.456Z,5.20
2023-01-27T01:19:05.032Z,5.25
2023-01-27T01:21:32.905Z,5.65
2023-01-27T01:23:59.531Z,5.32
2023-01-27T01:26:26.360Z,4.82
2023-01-27T01:28:53.028Z,5.10
2023-01-27T01:31:20.702Z,4.70
2023-01-27T01:33:47.975Z,5.35
2023-01-27T01:36:16.905Z,4.72
2023-01-27T01:38:44.993Z,4.88
2023-01-27T01:41:13.211Z,5.03
2023-01-27T01:43:40.102Z,5.47
2023-01-27T01:46:09.870Z,5.28
2023-01-27T01:48:40.383Z,5.18
2023-01-27T01:51:11.131Z,4.57
2023-01-27T01:53:43.192Z,5.10
2023-01-27T01:56:16.910Z,5.63
2023-01-27T01:58:45.469Z,5.15
2023-01-27T02:01:14.071Z,5.30
2023-01-27T02:03:44.787Z,5.85
2023-01-27T02:06:11.641Z,4.90
2023-01-27T02:08:40.541Z,5.30
2023-01-27T02:11:08.291Z,5.38
2023-01-27T02:13:36.641Z,5.53
2023-01-27T02:16:03.591Z,5.57
2023-01-27T02:18:30.432Z,5.37
2023-01-27T02:20:57.422Z,5.05
2023-01-27T02:23:38.522Z,5.70
2023-01-27T02:26:12.875Z,4.95
2023-01-27T02:28:39.424Z,6.07
2023-01-27T02:31:06.190Z,5.53
2023-01-27T02:33:32.843Z,5.28
2023-01-27T02:36:04.241Z,5.28
2023-01-27T02:38:35.158Z,5.15
2023-01-27T02:41:07.151Z,4.65
2023-01-27T02:43:35.227Z,4.83
2023-01-27T02:46:02.194Z,5.18
2023-01-27T02:48:28.802Z,4.93
2023-01-27T02:50:55.473Z,4.70
2023-01-27T02:53:22.034Z,4.90
2023-01-27T02:55:48.688Z,5.50
2023-01-27T02:58:15.193Z,4.93
2023-01-27T03:00:43.576Z,4.90
2023-01-27T03:03:10.190Z,4.50
2023-01-27T03:05:36.917Z,4.93
2023-01-27T03:08:03.583Z,4.57
2023-01-27T03:10:30.156Z,4.15
2023-01-27T03:12:56.687Z,4.20
2023-01-27T03:15:23.449Z,4.60
2023-01-27T03:17:51.797Z,4.70
2023-01-27T03:20:18.832Z,4.13
2023-01-27T03:22:45.532Z,4.18
2023-01-27T03:25:12.288Z,4.70
2023-01-27T03:27:39.108Z,3.60
2023-01-27T03:30:08.254Z,4.60
2023-01-27T03:32:35.200Z,5.10
2023-01-27T03:35:03.721Z,4.45
2023-01-27T03:37:31.698Z,4.63
2023-01-27T03:39:58.291Z,4.57
2023-01-27T03:42:24.975Z,4.50
2023-01-27T03:44:51.674Z,4.17
2023-01-27T03:47:18.232Z,4.50
2023-01-27T03:49:44.777Z,4.10
2023-01-27T03:52:12.699Z,4.00
2023-01-27T03:54:39.340Z,4.53
2023-01-27T03:57:05.995Z,4.63
2023-01-27T03:59:32.994Z,4.30
2023-01-27T04:02:01.003Z,4.15
2023-01-27T04:04:27.812Z,4.47
2023-01-27T04:06:54.434Z,4.22
2023-01-27T04:09:24.361Z,4.07
2023-01-27T04:11:51.123Z,4.20
2023-01-27T04:14:17.652Z,4.30
2023-01-27T04:16:44.797Z,4.40
2023-01-27T04:19:12.082Z,4.50
2023-01-27T04:21:38.887Z,4.63
2023-01-27T04:24:06.275Z,5.00
2023-01-27T04:26:35.332Z,4.68
2023-01-27T04:29:03.451Z,5.03
2023-01-27T04:31:30.882Z,5.40
2023-01-27T04:33:57.472Z,5.27
2023-01-27T04:36:24.195Z,5.50
2023-01-27T04:38:50.841Z,5.90
2023-01-27T04:41:17.384Z,5.57
2023-01-27T04:43:45.296Z,4.93
2023-01-27T04:46:11.927Z,5.17
2023-01-27T04:48:38.714Z,5.00
2023-01-27T04:51:05.647Z,4.95
2023-01-27T04:53:32.199Z,5.28
2023-01-27T04:56:02.872Z,4.90
2023-01-27T04:58:29.519Z,5.10
2023-01-27T05:00:57.636Z,4.93
2023-01-27T05:03:24.192Z,4.90
2023-01-27T05:05:51.764Z,4.68
2023-01-27T05:08:18.500Z,4.95
2023-01-27T05:10:45.071Z,4.67
2023-01-27T05:13:11.909Z,4.90
2023-01-27T05:15:38.527Z,5.50
2023-01-27T05:18:06.485Z,5.55
2023-01-27T05:20:32.999Z,5.38
2023-01-27T05:22:59.557Z,5.40
2023-01-27T05:25:26.151Z,5.05
2023-01-27T05:27:53.773Z,5.47
2023-01-27T05:30:20.469Z,5.32
2023-01-27T05:32:47.038Z,5.88
2023-01-27T05:35:15.309Z,5.33
2023-01-27T05:37:41.980Z,5.30
2023-01-27T05:40:10.237Z,5.68
2023-01-27T05:42:36.797Z,4.43
2023-01-27T05:45:03.826Z,5.20
2023-01-27T05:47:30.349Z,4.93
2023-01-27T05:49:56.861Z,5.00
2023-01-27T05:52:24.963Z,5.45
2023-01-27T05:54:51.521Z,5.20
2023-01-27T05:57:18.185Z,5.90
2023-01-27T05:59:44.914Z,5.57
2023-01-27T06:02:11.543Z,5.18
2023-01-27T06:04:38.131Z,5.53
2023-01-27T06:07:04.662Z,5.60
2023-01-27T06:09:32.593Z,5.40
2023-01-27T06:11:59.160Z,5.17
2023-01-27T06:14:25.813Z,4.65
2023-01-27T06:16:52.483Z,5.22
2023-01-27T06:19:19.051Z,4.60
2023-01-27T06:21:45.797Z,5.00
2023-01-27T06:24:13.683Z,4.70
2023-01-27T06:26:41.850Z,4.70
2023-01-27T06:29:08.401Z,4.45
2023-01-27T06:31:35.060Z,4.85
2023-01-27T06:34:01.654Z,4.50
2023-01-27T06:36:28.250Z,4.80
2023-01-27T06:38:54.988Z,4.50
2023-01-27T06:41:21.636Z,4.53
2023-01-27T06:43:49.492Z,4.80
2023-01-27T06:46:16.093Z,5.10
2023-01-27T06:48:42.661Z,4.43
2023-01-27T06:51:09.401Z,4.57
2023-01-27T06:53:35.939Z,4.68
2023-01-27T06:56:02.711Z,5.15
2023-01-27T06:58:29.780Z,4.22
2023-01-27T07:00:57.716Z,4.40
2023-01-27T07:03:24.385Z,4.93
2023-01-27T07:05:51.190Z,5.00
2023-01-27T07:08:17.767Z,4.47
2023-01-27T07:10:44.315Z,5.20
2023-01-27T07:13:12.408Z,4.57
2023-01-27T07:15:39.437Z,4.60
2023-01-27T07:18:07.494Z,4.53
2023-01-27T07:20:34.461Z,4.60
2023-01-27T07:23:02.552Z,4.50
2023-01-27T07:25:30.449Z,4.60
2023-01-27T07:27:57.336Z,5.13
2023-01-27T07:30:24.064Z,4.82
2023-01-27T07:32:50.601Z,5.30
2023-01-27T07:35:18.670Z,5.00
2023-01-27T07:37:45.301Z,5.07
2023-01-27T07:40:13.109Z,4.43
2023-01-27T07:42:40.496Z,4.50
2023-01-27T07:45:08.497Z,4.57
2023-01-27T07:47:35.204Z,4.68
2023-01-27T07:50:02.093Z,4.50
2023-01-27T07:52:30.200Z,4.40
2023-01-27T07:54:56.734Z,4.03
2023-01-27T07:57:23.465Z,4.20
2023-01-27T07:59:49.991Z,4.25
2023-01-27T08:02:16.594Z,4.50
2023-01-27T08:04:52.478Z,4.20
2023-01-27T08:07:20.385Z,4.57
2023-01-27T08:09:48.678Z,4.40
2023-01-27T08:12:15.548Z,4.70
2023-01-27T08:14:42.089Z,4.83
2023-01-27T08:17:08.617Z,4.75
2023-01-27T08:19:35.346Z,4.63
2023-01-27T08:22:02.015Z,4.85
2023-01-27T08:24:28.731Z,4.88
2023-01-27T08:26:56.849Z,4.40
2023-01-27T08:29:23.481Z,4.55
2023-01-27T08:31:50.170Z,4.38
2023-01-27T08:34:16.949Z,4.72
2023-01-27T08:36:43.528Z,4.40
2023-01-27T08:39:10.558Z,5.10
2023-01-27T08:41:37.097Z,4.35
2023-01-27T08:44:05.515Z,4.40
2023-01-27T08:46:32.379Z,4.18
2023-01-27T08:48:59.145Z,3.67
2023-01-27T08:51:25.893Z,3.43
2023-01-27T08:53:52.454Z,3.72
2023-01-27T08:56:19.289Z,3.70
2023-01-27T08:58:46.196Z,3.40
2023-01-27T09:01:15.344Z,3.47
2023-01-27T09:03:41.962Z,3.40
2023-01-27T09:06:10.496Z,3.60
2023-01-27T09:08:37.218Z,3.28
2023-01-27T09:11:09.312Z,3.13
2023-01-27T09:13:35.865Z,3.08
2023-01-27T09:16:02.966Z,3.20
2023-01-27T09:18:30.960Z,3.00
2023-01-27T09:20:57.532Z,2.90
2023-01-27T09:23:24.136Z,2.90
2023-01-27T09:25:50.654Z,3.15
2023-01-27T09:28:17.379Z,3.27
2023-01-27T09:30:46.074Z,2.80
2023-01-27T09:33:15.657Z,2.70
2023-01-27T09:35:46.750Z,3.05
2023-01-27T09:38:16.310Z,2.53
2023-01-27T09:41:08.661Z,2.43
2023-01-27T09:43:56.701Z,2.33
2023-01-27T09:46:47.635Z,2.35
2023-01-27T09:49:30.263Z,2.40
2023-01-27T09:52:11.573Z,2.50
2023-01-27T09:54:52.839Z,2.23
2023-01-27T09:57:34.796Z,2.25
2023-01-27T10:00:12.052Z,2.22
2023-01-27T10:03:14.168Z,2.08
2023-01-27T10:06:03.825Z,1.90
2023-01-27T10:08:54.458Z,1.97
2023-01-27T10:11:30.315Z,1.92
2023-01-27T10:14:10.414Z,1.80
2023-01-27T10:16:52.062Z,1.88
2023-01-27T10:19:35.871Z,1.52
2023-01-27T10:22:13.758Z,1.70
2023-01-27T10:24:52.161Z,1.70
2023-01-27T10:27:22.493Z,1.77
2023-01-27T10:29:56.828Z,1.80
2023-01-27T10:32:26.369Z,1.77
2023-01-27T10:35:03.631Z,1.60
2023-01-27T10:37:42.130Z,1.70
2023-01-27T10:40:17.951Z,1.70
2023-01-27T10:42:53.066Z,1.70
2023-01-27T10:45:27.689Z,1.70
2023-01-27T10:48:18.429Z,1.40
2023-01-27T10:50:49.160Z,1.63
2023-01-27T10:53:19.971Z,1.60
2023-01-27T10:55:54.399Z,1.70
2023-01-27T10:58:31.484Z,1.70
2023-01-27T11:03:51.222Z,1.80
2023-01-27T11:06:22.562Z,1.65
2023-01-27T11:08:53.344Z,1.75
2023-01-27T11:11:24.979Z,1.70
2023-01-27T11:13:58.716Z,1.60
2023-01-27T11:16:29.395Z,1.65
2023-01-27T11:19:03.933Z,1.85
2023-01-27T11:21:32.844Z,1.75
2023-01-27T11:24:11.680Z,2.00
2023-01-27T11:26:43.551Z,1.87
2023-01-27T11:29:21.563Z,2.30
2023-01-27T11:31:54.786Z,1.88
2023-01-27T11:34:30.311Z,2.10
2023-01-27T11:36:56.966Z,1.95
2023-01-27T11:39:24.386Z,1.83
2023-01-27T11:41:54.399Z,1.85
2023-01-27T11:44:24.383Z,1.70
2023-01-27T11:46:52.507Z,1.83
2023-01-27T11:49:24.477Z,1.90
2023-01-27T11:51:51.257Z,1.77
2023-01-27T11:54:21.602Z,1.98
2023-01-27T11:56:50.297Z,1.90
2023-01-27T11:59:23.064Z,1.90
2023-01-27T12:01:53.999Z,1.70
2023-01-27T12:04:25.969Z,1.80
2023-01-27T12:06:57.442Z,1.85
2023-01-27T12:09:31.905Z,1.83
2023-01-27T12:12:26.715Z,2.00
2023-01-27T12:14:56.755Z,1.77
2023-01-27T12:17:31.231Z,1.30
2023-01-27T12:20:00.841Z,1.60
2023-01-27T12:22:32.551Z,1.70
2023-01-27T12:25:03.383Z,1.83
2023-01-27T12:27:38.400Z,1.90
2023-01-27T12:30:17.743Z,1.50
2023-01-27T12:32:47.271Z,1.80
2023-01-27T12:35:21.529Z,2.15
2023-01-27T12:37:49.609Z,2.35
2023-01-27T12:40:20.249Z,2.10
2023-01-27T12:42:48.914Z,1.70
2023-01-27T12:45:26.361Z,1.48
2023-01-27T12:48:02.642Z,1.40
2023-01-27T12:50:31.529Z,1.40
2023-01-27T12:53:09.650Z,1.92
2023-01-27T12:55:40.387Z,2.27
2023-01-27T12:58:28.621Z,1.50
2023-01-27T13:00:58.148Z,1.98
2023-01-27T13:03:26.185Z,1.52
2023-01-27T13:05:54.913Z,1.52
2023-01-27T13:08:22.791Z,1.30
2023-01-27T13:10:51.224Z,1.65
2023-01-27T13:13:21.342Z,1.50
2023-01-27T13:15:52.719Z,1.27
2023-01-27T13:18:21.745Z,1.50
2023-01-27T13:20:51.485Z,1.30
2023-01-27T13:23:20.810Z,1.55
2023-01-27T13:25:52.622Z,1.30
2023-01-27T13:28:25.726Z,1.30
2023-01-27T13:30:58.269Z,1.40
2023-01-27T13:33:34.212Z,1.53
2023-01-27T13:36:07.163Z,1.40
2023-01-27T13:38:42.955Z,1.45
2023-01-27T13:41:18.170Z,1.40
2023-01-27T13:43:55.747Z,1.42
2023-01-27T13:46:27.012Z,1.30
2023-01-27T13:48:58.742Z,1.20
2023-01-27T13:51:29.407Z,1.42
2023-01-27T13:53:59.988Z,1.30
2023-01-27T13:56:38.212Z,1.50
2023-01-27T13:59:21.496Z,1.23
2023-01-27T14:01:55.651Z,1.17
2023-01-27T14:04:41.700Z,1.42
2023-01-27T14:07:18.157Z,1.42
2023-01-27T14:10:00.556Z,1.73
2023-01-27T14:12:39.714Z,1.30
2023-01-27T14:15:22.530Z,1.40
2023-01-27T14:17:54.500Z,1.70
2023-01-27T14:20:37.956Z,1.30
2023-01-27T14:23:16.393Z,1.48
2023-01-27T14:25:53.893Z,1.60
2023-01-27T14:28:31.436Z,1.55
2023-01-27T14:31:04.036Z,1.58
2023-01-27T14:33:49.480Z,1.70
2023-01-27T14:36:20.660Z,1.73
2023-01-27T14:38:58.845Z,1.90
2023-01-27T14:41:31.397Z,1.73
2023-01-27T14:44:06.352Z,1.98
2023-01-27T14:46:58.848Z,1.80
2023-01-27T14:49:40.092Z,1.83
2023-01-27T14:52:27.485Z,1.63
2023-01-27T14:55:10.012Z,1.80
2023-01-27T14:57:48.047Z,1.33
2023-01-27T15:00:30.415Z,1.27
2023-01-27T15:03:16.633Z,1.40
2023-01-27T15:06:01.403Z,1.30
2023-01-27T15:08:38.624Z,1.40
2023-01-27T15:11:22.328Z,1.60
2023-01-27T15:14:06.439Z,4.32
2023-01-27T15:16:48.366Z,2.30
2023-01-27T15:19:53.967Z,1.77
2023-01-27T15:23:00.276Z,1.58
2023-01-27T15:25:32.634Z,2.00
2023-01-27T15:28:00.836Z,2.10
2023-01-27T15:30:29.576Z,1.88
2023-01-27T15:32:56.429Z,2.00
2023-01-27T15:35:39.704Z,1.50
2023-01-27T15:38:20.239Z,1.50
2023-01-27T15:41:04.515Z,1.70
2023-01-27T15:43:31.818Z,1.63
2023-01-27T15:46:19.821Z,2.80
2023-01-27T15:48:47.635Z,2.05
2023-01-27T15:51:17.974Z,2.33
2023-01-27T15:53:48.697Z,2.05
2023-01-27T15:56:16.751Z,2.30
2023-01-27T15:58:50.677Z,2.00
2023-01-27T16:01:26.659Z,2.00
2023-01-27T16:04:07.773Z,2.25
2023-01-27T16:06:35.664Z,1.90
2023-01-27T16:09:05.229Z,2.17
2023-01-27T16:11:41.765Z,2.40
2023-01-27T16:14:39.942Z,2.10
2023-01-27T16:17:21.545Z,2.08
2023-01-27T16:19:57.535Z,2.20
2023-01-27T16:22:25.240Z,2.85
2023-01-27T16:24:54.333Z,1.63
2023-01-27T16:27:34.057Z,2.13
2023-01-27T16:30:11.353Z,2.38
2023-01-27T16:32:42.215Z,2.08
2023-01-27T16:35:17.106Z,2.45
2023-01-27T16:37:59.639Z,2.10
2023-01-27T16:40:27.565Z,2.17
2023-01-27T16:42:59.364Z,2.63
2023-01-27T16:45:30.130Z,2.45
2023-01-27T16:48:02.041Z,2.25
2023-01-27T16:50:34.754Z,1.90
2023-01-27T16:53:03.636Z,2.00
2023-01-27T16:55:30.770Z,2.20
2023-01-27T16:57:59.820Z,1.90
2023-01-27T17:00:29.022Z,2.00
2023-01-27T17:02:59.298Z,1.83
2023-01-27T17:05:26.963Z,2.10
2023-01-27T17:08:16.796Z,2.20
2023-01-27T17:10:48.990Z,1.98
2023-01-27T17:13:32.159Z,2.50
2023-01-27T17:16:00.716Z,1.83
2023-01-27T17:18:30.057Z,2.00
2023-01-27T17:20:58.294Z,1.58
2023-01-27T17:23:31.717Z,2.03
2023-01-27T17:26:04.256Z,1.77
2023-01-27T17:28:32.644Z,2.23
2023-01-27T17:31:07.593Z,2.20
2023-01-27T17:33:36.149Z,2.08
2023-01-27T17:36:10.159Z,2.10
2023-01-27T17:38:43.801Z,1.90
2023-01-27T17:41:32.629Z,2.40
2023-01-27T17:44:01.504Z,1.60
2023-01-27T17:46:31.533Z,1.75
2023-01-27T17:49:01.007Z,2.10
2023-01-27T17:51:33.171Z,1.83
2023-01-27T17:54:00.721Z,1.60
2023-01-27T17:56:29.092Z,1.80
2023-01-27T17:59:01.459Z,2.10
2023-01-27T18:01:28.312Z,2.10
2023-01-27T18:03:57.389Z,2.22
2023-01-27T18:06:27.803Z,1.97
2023-01-27T18:08:56.643Z,2.00
2023-01-27T18:11:26.703Z,2.30
2023-01-27T18:13:54.213Z,1.90
2023-01-27T18:16:23.706Z,1.95
2023-01-27T18:18:50.888Z,2.23
2023-01-27T18:21:23.190Z,2.10
2023-01-27T18:23:52.220Z,2.08
2023-01-27T18:26:25.776Z,1.83
2023-01-27T18:28:55.661Z,2.30
2023-01-27T18:31:26.918Z,1.90
2023-01-27T18:33:58.574Z,1.98
2023-01-27T18:36:29.772Z,2.05
2023-01-27T18:38:56.261Z,2.08
2023-01-27T18:41:25.278Z,2.50
2023-01-27T18:43:51.808Z,2.20
2023-01-27T18:46:18.400Z,2.30
2023-01-27T18:48:46.559Z,2.30
2023-01-27T18:51:15.030Z,2.42
2023-01-27T18:53:42.557Z,2.40
2023-01-27T18:56:09.360Z,2.70
2023-01-27T18:58:36.643Z,2.78
2023-01-27T19:01:05.044Z,2.40
2023-01-27T19:03:32.169Z,2.50
2023-01-27T19:06:00.421Z,2.50
2023-01-27T19:08:27.345Z,2.40
2023-01-27T19:10:53.937Z,2.45
2023-01-27T19:13:20.642Z,2.13
2023-01-27T19:15:49.952Z,2.63
2023-01-27T19:18:21.389Z,2.72
2023-01-27T19:20:48.012Z,2.77
2023-01-27T19:23:18.252Z,3.10
2023-01-27T19:25:46.858Z,2.65
2023-01-27T19:28:19.687Z,2.83
2023-01-27T19:30:46.634Z,3.03
2023-01-27T19:33:17.402Z,3.20
2023-01-27T19:35:46.415Z,2.90
2023-01-27T19:38:13.331Z,2.92
2023-01-27T19:40:42.290Z,2.83
2023-01-27T19:43:12.167Z,4.20
2023-01-27T19:45:39.324Z,3.20
2023-01-27T19:48:13.125Z,2.97
2023-01-27T19:50:39.998Z,2.72
2023-01-27T19:53:06.701Z,2.88
2023-01-27T19:55:34.386Z,2.50
2023-01-27T19:58:02.372Z,2.80
2023-01-27T20:00:30.752Z,3.10
2023-01-27T20:02:57.475Z,2.72
2023-01-27T20:05:25.996Z,2.50
2023-01-27T20:07:54.119Z,2.78
2023-01-27T20:10:22.808Z,2.70
2023-01-27T20:12:54.078Z,2.50
2023-01-27T20:15:22.845Z,2.40
2023-01-27T20:17:49.399Z,2.40
2023-01-27T20:20:16.399Z,2.70
2023-01-27T20:22:42.979Z,3.03
2023-01-27T20:25:13.524Z,2.58
2023-01-27T20:27:41.209Z,2.30
2023-01-27T20:30:09.124Z,2.83
2023-01-27T20:32:37.001Z,3.05
2023-01-27T20:35:03.915Z,2.90
2023-01-27T20:37:30.528Z,2.80
2023-01-27T20:39:57.136Z,3.10
2023-01-27T20:42:23.849Z,2.85
2023-01-27T20:44:50.730Z,3.03
2023-01-27T20:47:17.293Z,3.03
2023-01-27T20:49:45.215Z,3.83
2023-01-27T20:52:11.782Z,2.97
2023-01-27T20:54:38.359Z,3.10
2023-01-27T20:57:04.974Z,3.28
2023-01-27T20:59:31.521Z,3.00
2023-01-27T21:01:58.124Z,3.97
2023-01-27T21:04:25.268Z,3.30
2023-01-27T21:06:53.193Z,3.80
2023-01-27T21:09:19.740Z,5.70
2023-01-27T21:11:46.277Z,3.40
2023-01-27T21:14:12.839Z,3.35
2023-01-27T21:16:39.401Z,3.40
2023-01-27T21:19:06.103Z,4.20
2023-01-27T21:21:32.699Z,4.18
2023-01-27T21:24:00.682Z,3.20
2023-01-27T21:26:27.383Z,3.10
2023-01-27T21:28:54.314Z,3.55
2023-01-27T21:31:22.062Z,3.25
2023-01-27T21:33:48.781Z,9.68
2023-01-27T21:36:15.693Z,3.67
2023-01-27T21:38:42.344Z,3.33
2023-01-27T21:41:13.099Z,3.90
2023-01-27T21:43:39.872Z,3.70
2023-01-27T21:46:06.436Z,3.95
2023-01-27T21:48:32.981Z,3.80
2023-01-27T21:50:59.684Z,3.67
2023-01-27T21:53:26.255Z,4.65
2023-01-27T21:55:52.834Z,3.83
2023-01-27T21:58:20.738Z,3.72
2023-01-27T22:00:47.275Z,3.23
2023-01-27T22:03:13.856Z,4.07
2023-01-27T22:05:40.599Z,3.70
2023-01-27T22:08:07.160Z,3.50
2023-01-27T22:10:34.291Z,4.00
2023-01-27T22:13:03.424Z,3.60
2023-01-27T22:15:31.831Z,3.50
2023-01-27T22:17:58.608Z,3.38
2023-01-27T22:20:25.899Z,3.90
2023-01-27T22:22:52.592Z,4.00
2023-01-27T22:25:19.616Z,3.57
2023-01-27T22:27:46.921Z,3.53
2023-01-27T22:30:16.381Z,3.25
2023-01-27T22:32:45.170Z,3.40
2023-01-27T22:35:15.350Z,3.50
2023-01-27T22:37:42.187Z,3.93
2023-01-27T22:40:10.683Z,3.42
2023-01-27T22:42:37.247Z,3.80
2023-01-27T22:45:04.455Z,5.20
2023-01-27T22:47:30.984Z,3.67
2023-01-27T22:49:58.985Z,3.40
2023-01-27T22:52:25.601Z,3.30
2023-01-27T22:54:52.152Z,3.90
2023-01-27T22:57:18.688Z,3.50
2023-01-27T22:59:45.267Z,3.60
2023-01-27T23:02:11.897Z,4.37
2023-01-27T23:04:38.601Z,4.10
2023-01-27T23:07:06.623Z,4.93
2023-01-27T23:09:33.204Z,3.42
2023-01-27T23:11:59.748Z,3.80
2023-01-27T23:14:26.342Z,3.20
2023-01-27T23:16:53.000Z,4.68
2023-01-27T23:19:19.939Z,3.72
2023-01-27T23:21:46.461Z,3.75
2023-01-27T23:24:14.493Z,3.75
2023-01-27T23:26:41.266Z,3.43
2023-01-27T23:29:22.832Z,3.60
2023-01-27T23:31:50.837Z,4.47
2023-01-27T23:34:17.611Z,3.97
2023-01-27T23:36:44.150Z,3.70
2023-01-27T23:39:15.513Z,3.37
2023-01-27T23:41:42.127Z,3.63
2023-01-27T23:44:10.767Z,4.28
2023-01-27T23:46:37.592Z,3.50
2023-01-27T23:49:04.589Z,4.53
2023-01-27T23:51:31.203Z,4.33
2023-01-27T23:53:57.808Z,5.00
2023-01-27T23:56:25.760Z,3.63
2023-01-27T23:58:52.266Z,5.25
